Ivanhoe Post Office, Australia
Current Conditions -  °F | °C
As of 10:00 PM on Thursday 27 Nov 2014 (Local Time) from YGTH Reporting Station
Clear Clear  
Wind Chill: 75°   Ceiling: Unl
Heat Index: 75°   Visibility: 6mi
Dew Point: 39°   Wind: 8mph
Humidity: 27%   Direction: 200°SSW
Pressure: 30.03"   Gusts: NA
Location:  32.9°S, 144.28°E
Report Text: YGTH 271100Z AUTO 20007KT 9999 // NCD 24/04 Q1017
Loading
Personal Weather Stations






























Interactive Weather Map New forecast layout! Learn more

10-Day Weather Forecast

Advertisements
Track Severe Weather on mobile